Flugplatz Gunzenhausen-Reutberg

Für EDMH sind keine METAR/TAF Berichte vorhanden.
Es werden die Flugwettermeldungen vom Flugplatz Ansbach Army Heliport in 24 km Entfernung angezeigt.

Bericht für ETEB

vom 25.01. um 22:56 UTC

kein Wind

Sichtweite 3600 m

feuchter Dunst

gering bewölkt in 100 ft

Temperatur -1.4°C

Taupunkt -1.4°C

Luftfeuchtigkeit 100%

Luftdruck 1020 hPa

ETEB 252256Z AUTO 00000KT 3600 BR FEW001 M01/M01 A3013 RMK AO2 SLP243 T10141014 400591036 FZRANO $
Keine Prognose (TAF) verfügbar.
Impressum